createdAt,value
2018-09-02T00:00:38.983Z,15.58
2018-09-02T00:03:09.582Z,15.72
2018-09-02T00:05:40.061Z,15.85
2018-09-02T00:08:10.600Z,15.97
2018-09-02T00:10:41.546Z,16.01
2018-09-02T00:13:12.173Z,16.00
2018-09-02T00:15:42.811Z,15.94
2018-09-02T00:18:13.488Z,15.96
2018-09-02T00:20:44.826Z,15.91
2018-09-02T00:23:15.581Z,15.88
2018-09-02T00:25:46.175Z,15.87
2018-09-02T00:28:16.783Z,15.91
2018-09-02T00:30:47.608Z,16.04
2018-09-02T00:33:18.206Z,16.16
2018-09-02T00:35:49.207Z,16.13
2018-09-02T00:38:19.873Z,16.08
2018-09-02T00:40:50.487Z,16.16
2018-09-02T00:43:20.995Z,16.28
2018-09-02T00:45:51.541Z,16.27
2018-09-02T00:48:22.154Z,16.28
2018-09-02T00:50:52.767Z,16.29
2018-09-02T00:53:23.598Z,16.22
2018-09-02T00:55:54.394Z,16.23
2018-09-02T00:58:24.955Z,16.15
2018-09-02T01:00:55.374Z,16.15
2018-09-02T01:03:26.010Z,16.05
2018-09-02T01:05:56.392Z,15.95
2018-09-02T01:08:27.089Z,15.67
2018-09-02T01:10:57.667Z,15.56
2018-09-02T01:13:28.190Z,15.44
2018-09-02T01:15:58.710Z,15.36
2018-09-02T01:18:29.153Z,15.26
2018-09-02T01:20:59.756Z,15.20
2018-09-02T01:23:30.377Z,15.16
2018-09-02T01:26:00.789Z,15.04
2018-09-02T01:28:31.190Z,14.97
2018-09-02T01:31:01.704Z,14.87
2018-09-02T01:33:32.268Z,14.82
2018-09-02T01:36:02.796Z,14.80
2018-09-02T01:38:33.244Z,14.76
2018-09-02T01:41:03.732Z,14.71
2018-09-02T01:43:34.150Z,14.65
2018-09-02T01:46:04.979Z,14.62
2018-09-02T01:48:35.385Z,14.60
2018-09-02T01:51:05.877Z,14.55
2018-09-02T01:53:36.201Z,14.52
2018-09-02T01:56:06.678Z,14.54
2018-09-02T01:58:37.146Z,14.58
2018-09-02T02:01:09.004Z,14.60
2018-09-02T02:03:39.534Z,14.63
2018-09-02T02:06:10.190Z,14.66
2018-09-02T02:08:40.587Z,14.68
2018-09-02T02:11:11.060Z,14.72
2018-09-02T02:13:41.579Z,14.83
2018-09-02T02:16:12.067Z,14.93
2018-09-02T02:18:42.573Z,15.01
2018-09-02T02:21:13.185Z,15.01
2018-09-02T02:23:43.839Z,15.03
2018-09-02T02:26:14.308Z,14.94
2018-09-02T02:28:44.703Z,15.11
2018-09-02T02:31:15.166Z,15.04
2018-09-02T02:33:45.689Z,14.91
2018-09-02T02:36:16.065Z,14.75
2018-09-02T02:38:46.942Z,14.73
2018-09-02T02:41:17.534Z,14.96
2018-09-02T02:43:47.969Z,14.99
2018-09-02T02:46:18.489Z,14.90
2018-09-02T02:48:49.024Z,14.75
2018-09-02T02:51:19.670Z,14.58
2018-09-02T02:53:50.122Z,14.44
2018-09-02T02:56:20.403Z,14.36
2018-09-02T02:58:51.015Z,14.30
2018-09-02T03:01:21.641Z,14.30
2018-09-02T03:03:52.285Z,14.35
2018-09-02T03:06:23.423Z,14.28
2018-09-02T03:08:53.952Z,14.18
2018-09-02T03:11:24.321Z,14.11
2018-09-02T03:13:54.861Z,14.04
2018-09-02T03:16:25.261Z,13.97
2018-09-02T03:18:55.717Z,13.91
2018-09-02T03:21:26.256Z,13.87
2018-09-02T03:23:56.683Z,13.84
2018-09-02T03:26:27.205Z,13.81
2018-09-02T03:28:58.555Z,13.77
2018-09-02T03:31:28.928Z,13.75
2018-09-02T03:33:59.457Z,13.73
2018-09-02T03:36:29.964Z,13.69
2018-09-02T03:39:00.361Z,13.70
2018-09-02T03:41:31.013Z,13.73
2018-09-02T03:44:01.720Z,13.76
2018-09-02T03:46:32.246Z,13.81
2018-09-02T03:49:02.894Z,13.86
2018-09-02T03:51:33.442Z,13.82
2018-09-02T03:54:04.053Z,13.80
2018-09-02T03:56:34.512Z,13.80
2018-09-02T03:59:05.100Z,13.81
2018-09-02T04:01:35.561Z,13.89
2018-09-02T04:04:05.934Z,13.93
2018-09-02T04:06:36.594Z,13.98
2018-09-02T04:09:10.732Z,13.91
2018-09-02T04:11:41.756Z,13.91
2018-09-02T04:14:12.256Z,13.95
2018-09-02T04:16:42.788Z,14.00
2018-09-02T04:19:13.197Z,14.05
2018-09-02T04:21:43.779Z,14.04
2018-09-02T04:24:14.546Z,13.98
2018-09-02T04:26:45.161Z,13.92
2018-09-02T04:29:15.710Z,13.79
2018-09-02T04:31:46.223Z,13.71
2018-09-02T04:34:16.784Z,13.61
2018-09-02T04:36:47.292Z,13.47
2018-09-02T04:39:17.778Z,13.41
2018-09-02T04:41:48.324Z,13.38
2018-09-02T04:44:18.829Z,13.40
2018-09-02T04:46:49.345Z,13.43
2018-09-02T04:49:19.965Z,13.48
2018-09-02T04:51:50.805Z,13.53
2018-09-02T04:54:21.557Z,13.58
2018-09-02T04:56:51.966Z,13.65
2018-09-02T04:59:22.441Z,13.68
2018-09-02T05:01:53.247Z,13.69
2018-09-02T05:04:23.759Z,13.71
2018-09-02T05:06:54.404Z,13.79
2018-09-02T05:09:24.832Z,13.92
2018-09-02T05:11:55.472Z,14.15
2018-09-02T05:14:25.932Z,14.33
2018-09-02T05:16:56.367Z,14.65
2018-09-02T05:19:26.807Z,15.05
2018-09-02T05:21:57.328Z,15.48
2018-09-02T05:24:27.895Z,15.80
2018-09-02T05:26:58.360Z,16.12
2018-09-02T05:29:28.603Z,16.50
2018-09-02T05:31:59.107Z,16.77
2018-09-02T05:34:29.695Z,17.17
2018-09-02T05:37:00.825Z,17.37
2018-09-02T05:39:31.203Z,17.61
2018-09-02T05:42:01.799Z,17.66
2018-09-02T05:44:32.306Z,17.99
2018-09-02T05:47:02.808Z,18.05
2018-09-02T05:49:34.022Z,18.22
2018-09-02T05:52:04.565Z,17.64
2018-09-02T05:54:35.112Z,18.11
2018-09-02T05:57:05.582Z,19.15
2018-09-02T05:59:36.181Z,19.50
2018-09-02T06:02:07.029Z,19.39
2018-09-02T06:04:37.718Z,18.92
2018-09-02T06:07:08.267Z,18.60
2018-09-02T06:09:38.605Z,18.24
2018-09-02T06:12:09.666Z,18.18
2018-09-02T06:14:40.166Z,18.93
2018-09-02T06:17:10.739Z,19.76
2018-09-02T06:19:41.363Z,20.18
2018-09-02T06:22:11.848Z,20.97
2018-09-02T06:24:42.381Z,21.20
2018-09-02T06:27:12.771Z,20.87
2018-09-02T06:29:43.228Z,20.26
2018-09-02T06:32:13.711Z,20.00
2018-09-02T06:34:44.309Z,19.74
2018-09-02T06:37:14.970Z,19.43
2018-09-02T06:39:45.506Z,20.26
2018-09-02T06:42:16.212Z,21.68
2018-09-02T06:44:47.435Z,21.51
2018-09-02T06:47:18.148Z,21.30
2018-09-02T06:49:48.984Z,22.60
2018-09-02T06:52:19.393Z,23.40
2018-09-02T06:54:50.103Z,24.17
2018-09-02T06:57:20.778Z,24.80
2018-09-02T06:59:51.453Z,24.28
2018-09-02T07:02:22.049Z,24.89
2018-09-02T07:04:52.861Z,24.16
2018-09-02T07:07:23.659Z,23.18
2018-09-02T07:09:54.331Z,22.71
2018-09-02T07:12:30.527Z,22.36
2018-09-02T07:15:01.279Z,22.61
2018-09-02T07:17:31.768Z,22.97
2018-09-02T07:20:02.447Z,23.37
2018-09-02T07:22:33.031Z,23.87
2018-09-02T07:25:04.742Z,24.35
2018-09-02T07:27:35.336Z,25.20
2018-09-02T07:30:05.996Z,25.82
2018-09-02T07:32:37.107Z,26.26
2018-09-02T07:35:08.004Z,26.49
2018-09-02T07:37:39.149Z,26.62
2018-09-02T07:40:10.092Z,27.18
2018-09-02T07:42:40.740Z,27.31
2018-09-02T07:45:12.856Z,27.63
2018-09-02T07:47:44.000Z,28.37
2018-09-02T07:50:15.205Z,27.49
2018-09-02T07:52:46.837Z,27.09
2018-09-02T07:55:18.475Z,26.92
2018-09-02T07:57:49.332Z,26.39
2018-09-02T08:00:20.192Z,26.56
2018-09-02T08:02:51.959Z,28.08
2018-09-02T08:05:23.478Z,27.70
2018-09-02T08:07:54.210Z,27.02
2018-09-02T08:10:25.554Z,26.49
2018-09-02T08:12:56.726Z,26.01
2018-09-02T08:15:27.407Z,25.50
2018-09-02T08:17:58.440Z,25.21
2018-09-02T08:20:28.999Z,25.07
2018-09-02T08:23:00.142Z,25.06
2018-09-02T08:25:30.773Z,25.42
2018-09-02T08:28:01.852Z,26.17
2018-09-02T08:30:33.046Z,27.56
2018-09-02T08:33:03.877Z,29.57
2018-09-02T08:35:35.011Z,30.41
2018-09-02T08:38:06.629Z,32.14
2018-09-02T08:40:38.462Z,31.07
2018-09-02T08:43:09.472Z,30.17
2018-09-02T08:45:40.511Z,28.78
2018-09-02T08:48:11.239Z,28.05
2018-09-02T08:50:41.887Z,27.37
2018-09-02T08:53:12.489Z,27.05
2018-09-02T08:55:43.857Z,26.97
2018-09-02T08:58:14.342Z,27.52
2018-09-02T09:00:46.990Z,28.14
2018-09-02T09:03:17.662Z,26.89
2018-09-02T09:05:48.971Z,25.51
2018-09-02T09:08:21.291Z,25.38
2018-09-02T09:10:53.049Z,26.29
2018-09-02T09:13:24.621Z,26.90
2018-09-02T09:15:55.270Z,25.90
2018-09-02T09:18:26.855Z,24.72
2018-09-02T09:20:58.284Z,25.14
2018-09-02T09:23:29.064Z,25.90
2018-09-02T09:25:59.908Z,25.81
2018-09-02T09:28:30.482Z,25.47
2018-09-02T09:31:01.701Z,25.02
2018-09-02T09:33:32.502Z,24.95
2018-09-02T09:36:03.134Z,26.18
2018-09-02T09:38:33.942Z,28.21
2018-09-02T09:41:05.343Z,26.22
2018-09-02T09:43:35.907Z,25.37
2018-09-02T09:46:06.659Z,24.51
2018-09-02T09:48:37.851Z,24.23
2018-09-02T09:51:08.333Z,23.63
2018-09-02T09:53:39.744Z,23.67
2018-09-02T09:56:10.365Z,23.40
2018-09-02T09:58:40.763Z,23.09
2018-09-02T10:01:11.516Z,23.16
2018-09-02T10:03:42.183Z,22.55
2018-09-02T10:06:12.964Z,22.38
2018-09-02T10:08:43.552Z,22.58
2018-09-02T10:11:15.452Z,22.81
2018-09-02T10:13:46.021Z,22.95
2018-09-02T10:16:17.289Z,23.07
2018-09-02T10:18:47.874Z,23.16
2018-09-02T10:21:18.631Z,23.30
2018-09-02T10:23:48.999Z,23.33
2018-09-02T10:26:20.604Z,23.30
2018-09-02T10:28:52.642Z,23.36
2018-09-02T10:31:24.333Z,23.51
2018-09-02T10:33:55.873Z,23.73
2018-09-02T10:36:28.552Z,23.67
2018-09-02T10:39:00.411Z,23.70
2018-09-02T10:41:32.205Z,23.58
2018-09-02T10:44:03.689Z,23.45
2018-09-02T10:46:34.576Z,23.39
2018-09-02T10:49:06.516Z,23.29
2018-09-02T10:51:37.379Z,23.25
2018-09-02T10:54:09.196Z,23.05
2018-09-02T10:56:40.613Z,22.95
2018-09-02T10:59:11.515Z,22.74
2018-09-02T11:01:43.357Z,22.58
2018-09-02T11:04:14.330Z,22.57
2018-09-02T11:06:45.796Z,22.45
2018-09-02T11:09:17.609Z,22.34
2018-09-02T11:11:48.985Z,22.13
2018-09-02T11:14:20.500Z,21.57
2018-09-02T11:16:52.177Z,21.44
2018-09-02T11:19:24.636Z,21.28
2018-09-02T11:21:58.429Z,21.07
2018-09-02T11:24:29.979Z,20.93
2018-09-02T11:27:01.856Z,20.81
2018-09-02T11:29:33.803Z,20.53
2018-09-02T11:32:06.023Z,20.19
2018-09-02T11:34:37.761Z,19.83
2018-09-02T11:37:09.851Z,19.66
2018-09-02T11:39:43.955Z,19.48
2018-09-02T11:42:16.591Z,19.39
2018-09-02T12:28:02.973Z,18.36
2018-09-02T12:30:35.538Z,18.56
2018-09-02T12:33:07.941Z,18.67
2018-09-02T12:35:40.078Z,18.69
2018-09-02T12:38:12.959Z,18.84
2018-09-02T12:40:45.658Z,18.86
2018-09-02T12:43:17.719Z,18.85
2018-09-02T12:45:49.967Z,19.05
2018-09-02T12:48:23.330Z,19.29
2018-09-02T12:50:56.861Z,19.38
2018-09-02T12:53:30.178Z,19.47
2018-09-02T12:56:01.953Z,19.46
2018-09-02T12:58:34.970Z,19.61
2018-09-02T13:01:06.923Z,19.66
2018-09-02T13:03:38.687Z,19.68
2018-09-02T13:06:11.995Z,19.71
2018-09-02T13:08:44.400Z,19.73
2018-09-02T13:11:16.954Z,19.73
2018-09-02T13:13:48.661Z,19.77
2018-09-02T13:16:21.419Z,19.76
2018-09-02T13:18:53.630Z,19.65
2018-09-02T13:21:25.864Z,19.59
2018-09-02T13:23:57.844Z,19.44
2018-09-02T13:26:30.938Z,19.39
2018-09-02T13:29:03.457Z,19.26
2018-09-02T13:31:38.578Z,19.20
2018-09-02T13:34:10.629Z,19.11
2018-09-02T13:36:42.483Z,18.85
2018-09-02T13:39:14.499Z,18.72
2018-09-02T13:41:47.450Z,18.67
2018-09-02T13:44:19.130Z,18.61
2018-09-02T13:46:51.273Z,18.55
2018-09-02T13:49:23.693Z,18.50
2018-09-02T13:51:56.414Z,18.55
2018-09-02T13:54:28.528Z,18.63
2018-09-02T13:57:07.337Z,18.58
2018-09-02T13:59:39.118Z,18.57
2018-09-02T14:02:10.816Z,18.70
2018-09-02T14:04:43.787Z,18.93
2018-09-02T14:07:16.185Z,19.17
2018-09-02T14:09:48.028Z,19.36
2018-09-02T14:12:20.949Z,19.51
2018-09-02T14:14:53.029Z,19.71
2018-09-02T14:17:24.791Z,19.94
2018-09-02T14:19:57.067Z,20.10
2018-09-02T14:22:29.013Z,20.17
2018-09-02T14:25:01.181Z,20.21
2018-09-02T14:27:33.359Z,20.58
2018-09-02T14:30:06.461Z,21.03
2018-09-02T14:32:38.963Z,20.96
2018-09-02T14:35:12.320Z,21.25
2018-09-02T14:37:44.210Z,21.74
2018-09-02T14:40:16.890Z,22.22
2018-09-02T14:42:48.533Z,22.93
2018-09-02T14:45:20.190Z,22.92
2018-09-02T14:47:52.053Z,23.06
2018-09-02T14:50:23.809Z,23.63
2018-09-02T14:52:55.622Z,23.75
2018-09-02T14:55:27.987Z,24.13
2018-09-02T14:57:59.878Z,24.16
2018-09-02T15:00:31.483Z,24.64
2018-09-02T15:03:04.522Z,24.71
2018-09-02T15:05:36.282Z,24.99
2018-09-02T15:08:08.555Z,25.23
2018-09-02T15:10:40.240Z,24.99
2018-09-02T15:13:11.935Z,24.84
2018-09-02T15:15:44.010Z,24.63
2018-09-02T15:18:16.593Z,24.71
2018-09-02T15:20:48.228Z,24.87
2018-09-02T15:23:19.907Z,24.46
2018-09-02T15:25:51.691Z,24.26
2018-09-02T15:28:23.539Z,24.01
2018-09-02T15:30:55.423Z,24.06
2018-09-02T15:33:27.820Z,24.17
2018-09-02T15:35:59.317Z,24.36
2018-09-02T15:38:33.238Z,24.46
2018-09-02T15:41:05.537Z,24.52
2018-09-02T15:43:39.133Z,24.74
2018-09-02T15:46:11.274Z,24.77
2018-09-02T15:48:52.364Z,24.21
2018-09-02T15:51:24.928Z,22.96
2018-09-02T15:53:56.738Z,22.52
2018-09-02T15:56:28.331Z,21.61
2018-09-02T15:59:00.921Z,21.01
2018-09-02T16:01:32.679Z,20.92
2018-09-02T16:04:05.272Z,20.55
2018-09-02T16:06:37.709Z,20.43
2018-09-02T16:09:12.744Z,20.46
2018-09-02T16:11:44.764Z,20.27
2018-09-02T16:14:17.088Z,20.07
2018-09-02T16:16:49.024Z,20.02
2018-09-02T16:19:21.710Z,20.04
2018-09-02T16:21:54.523Z,20.22
2018-09-02T16:24:26.355Z,20.48
2018-09-02T16:27:00.303Z,20.55
2018-09-02T16:29:34.402Z,20.51
2018-09-02T16:32:07.556Z,20.22
2018-09-02T16:34:39.997Z,20.35
2018-09-02T16:37:12.361Z,20.39
2018-09-02T16:39:44.807Z,20.33
2018-09-02T16:42:18.420Z,20.08
2018-09-02T16:44:50.362Z,20.11
2018-09-02T16:47:23.248Z,20.01
2018-09-02T16:49:56.508Z,20.05
2018-09-02T16:52:29.175Z,20.01
2018-09-02T16:55:01.979Z,20.02
2018-09-02T16:57:35.293Z,19.93
2018-09-02T17:00:08.668Z,19.74
2018-09-02T17:02:42.222Z,19.67
2018-09-02T17:05:21.704Z,19.62
2018-09-02T17:07:53.820Z,19.50
2018-09-02T17:10:26.304Z,19.38
2018-09-02T17:12:58.200Z,19.26
2018-09-02T17:15:30.757Z,19.17
2018-09-02T17:18:02.833Z,19.05
2018-09-02T17:20:38.746Z,19.02
2018-09-02T17:23:13.748Z,18.93
2018-09-02T17:25:46.277Z,18.88
2018-09-02T17:28:19.737Z,18.85
2018-09-02T17:30:51.447Z,18.82
2018-09-02T17:33:24.011Z,18.80
2018-09-02T17:35:56.289Z,18.78
2018-09-02T17:38:28.215Z,18.73
2018-09-02T17:41:01.021Z,18.72
2018-09-02T17:43:32.698Z,18.68
2018-09-02T17:46:06.332Z,18.62
2018-09-02T17:48:40.290Z,18.49
2018-09-02T17:51:13.020Z,18.43
2018-09-02T17:53:45.519Z,18.33
2018-09-02T17:56:17.355Z,18.22
2018-09-02T17:58:49.282Z,18.12
2018-09-02T18:01:21.236Z,18.05
2018-09-02T18:03:55.550Z,18.05
2018-09-02T18:06:30.010Z,17.96
2018-09-02T18:09:03.058Z,17.88
2018-09-02T18:11:36.584Z,17.70
2018-09-02T18:14:08.704Z,17.58
2018-09-02T18:16:41.089Z,17.54
2018-09-02T18:19:13.081Z,17.63
2018-09-02T18:21:46.858Z,17.56
2018-09-02T18:24:19.394Z,17.46
2018-09-02T18:26:51.938Z,17.36
2018-09-02T18:29:23.612Z,17.33
2018-09-02T18:31:55.550Z,17.30
2018-09-02T18:34:27.394Z,17.29
2018-09-02T18:36:59.696Z,17.33
2018-09-02T18:39:31.872Z,17.40
2018-09-02T18:42:03.866Z,17.37
2018-09-02T18:44:35.602Z,17.27
2018-09-02T18:47:07.652Z,17.25
2018-09-02T18:49:40.028Z,17.20
2018-09-02T18:52:12.375Z,17.10
2018-09-02T18:54:44.333Z,17.04
2018-09-02T18:57:16.334Z,17.07
2018-09-02T18:59:48.304Z,16.99
2018-09-02T19:02:20.551Z,16.96
2018-09-02T19:04:52.493Z,17.02
2018-09-02T19:07:24.229Z,16.94
2018-09-02T19:09:57.283Z,16.87
2018-09-02T19:12:29.325Z,16.81
2018-09-02T19:15:02.956Z,16.74
2018-09-02T19:17:35.361Z,16.66
2018-09-02T19:20:07.568Z,16.67
2018-09-02T19:22:40.230Z,16.60
2018-09-02T19:25:13.364Z,16.49
2018-09-02T19:27:45.499Z,16.47
2018-09-02T19:30:18.247Z,16.46
2018-09-02T19:32:50.795Z,16.39
2018-09-02T19:35:22.541Z,16.36
2018-09-02T19:37:54.583Z,16.35
2018-09-02T19:40:26.553Z,16.45
2018-09-02T19:42:58.541Z,16.55
2018-09-02T19:45:30.497Z,16.67
2018-09-02T19:48:02.435Z,16.63
2018-09-02T19:50:34.278Z,16.52
2018-09-02T19:53:06.865Z,16.47
2018-09-02T19:55:39.028Z,16.41
2018-09-02T19:58:12.537Z,16.23
2018-09-02T20:00:44.663Z,16.13
2018-09-02T20:03:17.597Z,16.03
2018-09-02T20:05:49.984Z,15.90
2018-09-02T20:08:22.927Z,15.81
2018-09-02T20:10:57.138Z,15.87
2018-09-02T20:13:29.528Z,15.96
2018-09-02T20:16:01.565Z,15.96
2018-09-02T20:18:34.313Z,15.96
2018-09-02T20:21:08.233Z,15.95
2018-09-02T20:23:40.330Z,15.94
2018-09-02T20:26:14.172Z,15.89
2018-09-02T20:28:46.029Z,15.88
2018-09-02T20:31:17.933Z,15.95
2018-09-02T20:33:50.919Z,15.95
2018-09-02T20:36:23.171Z,15.88
2018-09-02T20:38:54.934Z,15.86
2018-09-02T20:41:28.556Z,15.76
2018-09-02T20:44:00.999Z,15.74
2018-09-02T20:46:35.041Z,15.71
2018-09-02T20:49:08.153Z,15.65
2018-09-02T20:51:40.223Z,15.66
2018-09-02T20:54:12.195Z,15.70
2018-09-02T20:56:44.837Z,15.67
2018-09-02T20:59:17.621Z,15.61
2018-09-02T21:01:49.429Z,15.54
2018-09-02T21:04:21.465Z,15.48
2018-09-02T21:06:53.944Z,15.43
2018-09-02T21:09:25.556Z,15.47
2018-09-02T21:11:57.355Z,15.43
2018-09-02T21:14:28.850Z,15.41
2018-09-02T21:17:01.118Z,15.43
2018-09-02T21:19:32.616Z,15.37
2018-09-02T21:22:04.245Z,15.35
2018-09-02T21:24:35.778Z,15.31
2018-09-02T21:27:07.109Z,15.28
2018-09-02T21:29:38.382Z,15.31
2018-09-02T21:32:10.106Z,15.30
2018-09-02T21:34:41.522Z,15.30
2018-09-02T21:37:14.426Z,15.24
2018-09-02T21:39:45.001Z,15.20
2018-09-02T21:42:16.602Z,15.21
2018-09-02T21:44:47.316Z,15.13
2018-09-02T21:47:17.917Z,15.15
2018-09-02T21:49:48.847Z,15.17
2018-09-02T21:52:19.803Z,15.17
2018-09-02T21:54:50.902Z,15.17
2018-09-02T21:57:21.380Z,15.14
2018-09-02T21:59:52.067Z,15.09
2018-09-02T22:02:22.830Z,15.06
2018-09-02T22:04:53.342Z,15.05
2018-09-02T22:07:23.998Z,15.07
2018-09-02T22:09:54.653Z,15.12
2018-09-02T22:12:25.188Z,15.02
2018-09-02T22:14:55.687Z,14.93
2018-09-02T22:17:26.546Z,14.80
2018-09-02T22:19:57.251Z,14.83
2018-09-02T22:22:27.739Z,14.83
2018-09-02T22:24:58.390Z,14.72
2018-09-02T22:27:28.801Z,14.67
2018-09-02T22:29:59.299Z,14.66
2018-09-02T22:32:30.017Z,14.71
2018-09-02T22:35:00.533Z,14.78
2018-09-02T22:37:31.066Z,14.74
2018-09-02T22:40:01.921Z,14.70
2018-09-02T22:42:32.520Z,14.62
2018-09-02T22:45:02.929Z,14.53
2018-09-02T22:47:33.471Z,14.45
2018-09-02T22:50:03.927Z,14.38
2018-09-02T22:52:34.464Z,14.29
2018-09-02T22:55:05.032Z,14.18
2018-09-02T22:57:35.829Z,14.09
2018-09-02T23:00:06.753Z,14.02
2018-09-02T23:02:37.382Z,13.95
2018-09-02T23:05:08.002Z,13.92
2018-09-02T23:07:38.439Z,13.84
2018-09-02T23:10:08.895Z,13.81
2018-09-02T23:12:39.530Z,13.84
2018-09-02T23:15:10.128Z,13.89
2018-09-02T23:17:40.608Z,13.94
2018-09-02T23:20:11.116Z,14.03
2018-09-02T23:22:41.508Z,14.09
2018-09-02T23:25:12.610Z,14.06
2018-09-02T23:27:43.245Z,14.12
2018-09-02T23:30:13.897Z,14.20
2018-09-02T23:32:44.383Z,14.22
2018-09-02T23:35:15.180Z,14.30
2018-09-02T23:37:45.525Z,14.32
2018-09-02T23:40:16.144Z,14.42
2018-09-02T23:42:46.715Z,14.53
2018-09-02T23:45:17.341Z,14.62
2018-09-02T23:47:47.715Z,14.70
2018-09-02T23:50:18.209Z,14.75
2018-09-02T23:52:48.733Z,14.77
2018-09-02T23:55:19.329Z,14.78
2018-09-02T23:57:49.917Z,14.76
